createdAt,value
2023-04-20T00:04:38.250Z,35.70
2023-04-20T00:09:42.060Z,30.00
2023-04-20T00:14:45.977Z,42.20
2023-04-20T00:19:50.377Z,39.60
2023-04-20T00:24:54.190Z,37.10
2023-04-20T00:29:58.103Z,33.60
2023-04-20T00:35:01.846Z,38.20
2023-04-20T00:40:07.161Z,34.30
2023-04-20T00:45:11.056Z,32.50
2023-04-20T00:50:16.111Z,32.80
2023-04-20T00:55:21.208Z,31.60
2023-04-20T01:00:25.970Z,28.00
2023-04-20T01:05:29.807Z,28.40
2023-04-20T01:10:33.668Z,30.00
2023-04-20T01:15:37.725Z,29.70
2023-04-20T01:20:41.737Z,30.60
2023-04-20T01:25:45.617Z,25.70
2023-04-20T01:30:51.831Z,28.50
2023-04-20T01:35:55.600Z,24.10
2023-04-20T01:40:59.893Z,25.20
2023-04-20T01:46:05.418Z,23.90
2023-04-20T01:51:10.009Z,26.40
2023-04-20T01:56:13.720Z,26.00
2023-04-20T02:01:17.597Z,25.70
2023-04-20T02:06:21.386Z,27.10
2023-04-20T02:11:25.620Z,23.50
2023-04-20T02:16:29.576Z,23.40
2023-04-20T02:21:33.307Z,30.70
2023-04-20T02:26:37.108Z,26.90
2023-04-20T02:31:40.902Z,34.20
2023-04-20T02:36:44.986Z,31.40
2023-04-20T02:41:49.471Z,35.10
2023-04-20T02:46:54.168Z,30.20
2023-04-20T02:51:58.585Z,36.40
2023-04-20T02:57:03.892Z,34.70
2023-04-20T03:02:07.806Z,33.90
2023-04-20T03:07:13.059Z,34.20
2023-04-20T03:12:19.036Z,29.00
2023-04-20T03:17:31.894Z,32.40
2023-04-20T03:22:36.545Z,30.20
2023-04-20T03:27:40.300Z,31.50
2023-04-20T03:32:47.471Z,33.60
2023-04-20T03:37:51.400Z,33.60
2023-04-20T03:42:55.165Z,36.10
2023-04-20T03:47:58.944Z,32.90
2023-04-20T03:53:03.309Z,34.30
2023-04-20T03:58:07.843Z,30.70
2023-04-20T04:03:22.423Z,31.20
2023-04-20T04:08:27.221Z,31.50
2023-04-20T04:13:33.876Z,30.70
2023-04-20T04:18:48.522Z,37.90
2023-04-20T04:23:54.529Z,32.60
2023-04-20T04:29:20.997Z,32.60
2023-04-20T04:34:30.231Z,31.40
2023-04-20T04:39:34.557Z,33.10
2023-04-20T04:44:45.480Z,33.60
2023-04-20T04:49:53.315Z,34.30
2023-04-20T04:54:57.236Z,38.50
2023-04-20T05:00:00.889Z,35.30
2023-04-20T05:05:04.931Z,40.10
2023-04-20T05:10:09.106Z,37.60
2023-04-20T05:15:12.808Z,35.90
2023-04-20T05:20:16.506Z,41.60
2023-04-20T05:25:20.518Z,43.70
2023-04-20T05:30:24.386Z,40.30
2023-04-20T05:35:28.184Z,44.60
2023-04-20T05:40:32.559Z,49.40
2023-04-20T05:45:36.398Z,43.60
2023-04-20T05:50:40.161Z,45.10
2023-04-20T05:55:43.842Z,48.20
2023-04-20T06:00:48.010Z,44.50
2023-04-20T06:05:51.940Z,46.60
2023-04-20T06:10:59.940Z,46.90
2023-04-20T06:16:03.870Z,49.00
2023-04-20T06:21:11.547Z,49.50
2023-04-20T06:26:15.329Z,42.70
2023-04-20T06:31:22.303Z,43.70
2023-04-20T06:36:26.075Z,44.60
2023-04-20T06:41:29.696Z,45.70
2023-04-20T06:46:33.386Z,45.40
2023-04-20T06:51:37.098Z,45.30
2023-04-20T06:56:56.924Z,47.40
2023-04-20T07:02:00.686Z,45.90
2023-04-20T07:07:04.558Z,44.80
2023-04-20T07:12:08.699Z,41.90
2023-04-20T07:17:12.366Z,43.20
2023-04-20T07:22:16.158Z,39.20
2023-04-20T07:27:19.886Z,44.80
2023-04-20T07:32:24.010Z,44.80
2023-04-20T07:37:27.997Z,45.20
2023-04-20T07:42:34.160Z,42.10
2023-04-20T07:47:38.335Z,42.20
2023-04-20T07:52:42.234Z,39.00
2023-04-20T07:57:46.422Z,40.10
2023-04-20T08:02:50.361Z,37.20
2023-04-20T08:07:54.224Z,37.80
2023-04-20T08:12:57.941Z,36.70
2023-04-20T08:18:01.547Z,38.10
2023-04-20T08:23:05.155Z,42.20
2023-04-20T08:28:12.237Z,39.00
2023-04-20T08:33:23.407Z,38.00
2023-04-20T08:38:33.953Z,40.70
2023-04-20T08:43:38.136Z,41.40
2023-04-20T08:48:42.644Z,42.50
2023-04-20T08:53:46.367Z,38.70
2023-04-20T08:58:50.156Z,43.20
2023-04-20T09:03:53.891Z,43.30
2023-04-20T09:08:57.805Z,47.30
2023-04-20T09:14:10.607Z,43.10
2023-04-20T09:19:14.992Z,42.10
2023-04-20T09:24:23.704Z,39.90
2023-04-20T09:29:28.245Z,43.00
2023-04-20T09:34:32.193Z,38.60
2023-04-20T09:39:37.693Z,38.70
2023-04-20T09:44:41.714Z,39.70
2023-04-20T09:49:47.580Z,39.60
2023-04-20T09:54:52.048Z,35.20
2023-04-20T09:59:57.800Z,39.50
2023-04-20T10:05:02.536Z,36.60
2023-04-20T10:10:12.761Z,34.30
2023-04-20T10:15:17.447Z,33.00
2023-04-20T10:20:25.725Z,37.40
2023-04-20T10:25:29.470Z,36.40
2023-04-20T10:30:34.438Z,40.00
2023-04-20T10:35:44.540Z,34.30
2023-04-20T10:40:49.554Z,33.70
2023-04-20T10:45:53.794Z,38.00
2023-04-20T10:50:58.490Z,31.60
2023-04-20T10:56:02.499Z,35.40
2023-04-20T11:01:06.445Z,29.70
2023-04-20T11:06:10.352Z,33.30
2023-04-20T11:11:25.820Z,33.60
2023-04-20T11:16:44.334Z,32.70
2023-04-20T11:21:53.469Z,36.30
2023-04-20T11:26:58.474Z,31.70
2023-04-20T11:32:05.009Z,32.30
2023-04-20T11:37:10.933Z,31.10
2023-04-20T11:42:14.855Z,33.20
2023-04-20T11:47:18.586Z,34.50
2023-04-20T11:52:22.582Z,29.10
2023-04-20T11:57:26.584Z,34.70
2023-04-20T12:02:30.496Z,33.40
2023-04-20T12:07:34.477Z,30.80
2023-04-20T12:12:38.786Z,31.90
2023-04-20T12:17:42.480Z,27.60
2023-04-20T12:22:46.252Z,32.60
2023-04-20T12:27:50.127Z,30.20
2023-04-20T12:32:53.890Z,28.00
2023-04-20T12:37:57.694Z,25.60
2023-04-20T12:43:01.442Z,24.20
2023-04-20T12:48:05.547Z,26.70
2023-04-20T12:53:09.208Z,23.20
2023-04-20T12:58:13.063Z,24.30
2023-04-20T13:03:17.417Z,22.50
2023-04-20T13:08:22.132Z,21.10
2023-04-20T13:13:26.017Z,20.30
2023-04-20T13:18:29.790Z,19.90
2023-04-20T13:23:33.593Z,19.10
2023-04-20T13:28:38.130Z,21.60
2023-04-20T13:33:41.788Z,16.00
2023-04-20T13:38:45.744Z,16.80
2023-04-20T13:43:49.880Z,17.60
2023-04-20T13:48:53.557Z,12.60
2023-04-20T13:53:57.276Z,13.00
2023-04-20T13:59:04.392Z,14.40
2023-04-20T14:04:10.496Z,12.70
2023-04-20T14:09:14.362Z,14.50
2023-04-20T14:14:18.339Z,16.90
2023-04-20T14:19:22.434Z,14.00
2023-04-20T14:24:26.391Z,15.50
2023-04-20T14:29:30.122Z,10.90
2023-04-20T14:34:34.050Z,13.00
2023-04-20T14:39:37.848Z,10.80
2023-04-20T14:44:41.739Z,7.50
2023-04-20T14:49:45.564Z,12.10
2023-04-20T14:54:49.346Z,12.20
2023-04-20T14:59:53.256Z,20.50
2023-04-20T15:04:58.491Z,17.30
2023-04-20T15:10:02.579Z,15.60
2023-04-20T15:15:07.758Z,12.10
2023-04-20T15:20:12.351Z,11.20
2023-04-20T15:25:16.079Z,12.80
2023-04-20T15:30:21.670Z,13.00
2023-04-20T15:35:25.475Z,12.60
2023-04-20T15:40:29.582Z,18.00
2023-04-20T15:45:33.416Z,13.10
2023-04-20T15:50:37.831Z,18.70
2023-04-20T15:55:41.621Z,16.30
2023-04-20T16:00:45.310Z,15.30
2023-04-20T16:05:50.353Z,13.90
2023-04-20T16:10:55.328Z,19.80
2023-04-20T16:15:59.344Z,15.60
2023-04-20T16:21:03.778Z,11.80
2023-04-20T16:26:07.775Z,15.00
2023-04-20T16:31:12.041Z,18.50
2023-04-20T16:36:16.959Z,12.30
2023-04-20T16:41:21.340Z,16.50
2023-04-20T16:46:25.455Z,19.90
2023-04-20T16:51:29.710Z,17.00
2023-04-20T16:56:33.326Z,15.70
2023-04-20T17:01:37.285Z,17.10
2023-04-20T17:06:41.320Z,15.00
2023-04-20T17:11:45.277Z,20.60
2023-04-20T17:16:51.209Z,14.20
2023-04-20T17:21:55.340Z,14.00
2023-04-20T17:26:59.060Z,16.50
2023-04-20T17:32:03.462Z,15.00
2023-04-20T17:37:08.104Z,20.90
2023-04-20T17:42:13.066Z,23.20
2023-04-20T17:47:16.999Z,13.50
2023-04-20T17:52:25.543Z,14.70
2023-04-20T17:57:29.887Z,15.00
2023-04-20T18:02:34.342Z,18.80
2023-04-20T18:07:41.815Z,14.80
2023-04-20T18:12:47.064Z,13.40
2023-04-20T18:17:52.780Z,23.10
2023-04-20T18:23:00.156Z,20.80
2023-04-20T18:28:06.851Z,28.10
2023-04-20T18:33:17.017Z,26.60
2023-04-20T18:38:27.831Z,28.70
2023-04-20T18:43:32.722Z,27.60
2023-04-20T18:48:37.818Z,26.50
2023-04-20T18:53:44.208Z,32.70
2023-04-20T18:58:51.841Z,74.30
2023-04-20T19:03:58.243Z,55.80
2023-04-20T19:09:04.449Z,46.70
2023-04-20T19:14:11.272Z,126.20
2023-04-20T19:19:17.879Z,100.00
2023-04-20T19:24:23.541Z,42.20
2023-04-20T19:29:30.132Z,60.90
2023-04-20T19:34:35.038Z,66.00
2023-04-20T19:39:47.610Z,148.20
2023-04-20T19:44:53.883Z,85.40
2023-04-20T19:49:58.836Z,62.10
2023-04-20T19:55:05.639Z,32.00
2023-04-20T20:00:15.603Z,16.10
2023-04-20T20:05:23.844Z,21.20
2023-04-20T20:10:31.147Z,31.60
2023-04-20T20:15:37.977Z,26.10
2023-04-20T20:20:43.160Z,14.80
2023-04-20T20:25:46.943Z,24.50
2023-04-20T20:30:51.270Z,23.30
2023-04-20T20:35:56.427Z,28.80
2023-04-20T20:41:03.734Z,20.90
2023-04-20T20:46:09.684Z,21.10
2023-04-20T20:51:14.052Z,24.20
2023-04-20T20:56:17.822Z,26.00
2023-04-20T21:01:21.818Z,22.50
2023-04-20T21:06:25.715Z,23.80
2023-04-20T21:11:29.450Z,26.00
2023-04-20T21:16:33.790Z,24.60
2023-04-20T21:21:38.394Z,19.10
2023-04-20T21:26:42.281Z,28.50
2023-04-20T21:31:46.020Z,26.60
2023-04-20T21:36:49.777Z,30.50
2023-04-20T21:41:53.530Z,29.50
2023-04-20T21:46:57.674Z,34.20
2023-04-20T21:52:01.427Z,31.80
2023-04-20T21:57:05.372Z,25.70
2023-04-20T22:02:09.087Z,29.10
2023-04-20T22:07:12.851Z,27.70
2023-04-20T22:12:18.123Z,25.30
2023-04-20T22:17:24.060Z,30.80
2023-04-20T22:22:27.713Z,33.20
2023-04-20T22:27:33.814Z,28.00
2023-04-20T22:32:39.032Z,33.30
2023-04-20T22:37:43.004Z,28.90
2023-04-20T22:42:46.665Z,29.20
2023-04-20T22:47:50.392Z,28.10
2023-04-20T22:52:54.287Z,25.20
2023-04-20T22:57:57.896Z,22.80
2023-04-20T23:03:01.788Z,21.80
2023-04-20T23:08:07.030Z,28.20
2023-04-20T23:13:16.957Z,31.70
2023-04-20T23:18:20.676Z,22.20
2023-04-20T23:23:24.266Z,21.30
2023-04-20T23:28:28.065Z,20.00
2023-04-20T23:33:31.800Z,19.50
2023-04-20T23:38:35.501Z,25.00
2023-04-20T23:43:39.867Z,26.30
2023-04-20T23:48:43.615Z,21.80
2023-04-20T23:53:47.343Z,31.90
2023-04-20T23:58:51.363Z,20.70
